sensor_id;sensor_type;location;lat;lon;timestamp;P1;durP1;ratioP1;P2;durP2;ratioP2
26014;SDS011;13793;55.388;37.844;2022-07-24T00:02:24;59.70;;;47.33;;
26014;SDS011;13793;55.388;37.844;2022-07-24T00:04:57;52.67;;;43.42;;
26014;SDS011;13793;55.388;37.844;2022-07-24T00:07:29;47.88;;;39.13;;
26014;SDS011;13793;55.388;37.844;2022-07-24T00:10:01;44.95;;;35.70;;
26014;SDS011;13793;55.388;37.844;2022-07-24T00:12:32;41.20;;;33.53;;
26014;SDS011;13793;55.388;37.844;2022-07-24T00:15:03;37.58;;;30.32;;
26014;SDS011;13793;55.388;37.844;2022-07-24T00:17:34;39.58;;;33.50;;
26014;SDS011;13793;55.388;37.844;2022-07-24T00:20:05;36.45;;;30.20;;
26014;SDS011;13793;55.388;37.844;2022-07-24T00:22:37;33.67;;;29.48;;
26014;SDS011;13793;55.388;37.844;2022-07-24T00:25:08;34.05;;;28.23;;
26014;SDS011;13793;55.388;37.844;2022-07-24T00:27:38;31.33;;;26.42;;
26014;SDS011;13793;55.388;37.844;2022-07-24T00:30:09;31.87;;;26.90;;
26014;SDS011;13793;55.388;37.844;2022-07-24T00:32:40;37.93;;;30.55;;
26014;SDS011;13793;55.388;37.844;2022-07-24T00:35:11;42.62;;;31.17;;
26014;SDS011;13793;55.388;37.844;2022-07-24T00:37:42;39.55;;;31.70;;
26014;SDS011;13793;55.388;37.844;2022-07-24T00:40:14;39.95;;;31.07;;
26014;SDS011;13793;55.388;37.844;2022-07-24T00:42:44;37.30;;;28.38;;
26014;SDS011;13793;55.388;37.844;2022-07-24T00:45:15;30.23;;;25.02;;
26014;SDS011;13793;55.388;37.844;2022-07-24T00:47:45;31.42;;;25.30;;
26014;SDS011;13793;55.388;37.844;2022-07-24T00:50:16;29.98;;;21.75;;
26014;SDS011;13793;55.388;37.844;2022-07-24T00:52:47;25.48;;;22.73;;
26014;SDS011;13793;55.388;37.844;2022-07-24T00:55:18;27.80;;;21.65;;
26014;SDS011;13793;55.388;37.844;2022-07-24T00:57:50;27.20;;;22.10;;
26014;SDS011;13793;55.388;37.844;2022-07-24T01:00:21;22.60;;;20.20;;
26014;SDS011;13793;55.388;37.844;2022-07-24T01:02:52;22.07;;;19.07;;
26014;SDS011;13793;55.388;37.844;2022-07-24T01:05:26;25.15;;;20.95;;
26014;SDS011;13793;55.388;37.844;2022-07-24T01:07:56;23.15;;;20.65;;
26014;SDS011;13793;55.388;37.844;2022-07-24T01:10:27;24.40;;;20.70;;
26014;SDS011;13793;55.388;37.844;2022-07-24T01:12:58;21.55;;;19.25;;
26014;SDS011;13793;55.388;37.844;2022-07-24T01:15:29;23.00;;;20.27;;
26014;SDS011;13793;55.388;37.844;2022-07-24T01:18:00;23.27;;;19.25;;
26014;SDS011;13793;55.388;37.844;2022-07-24T01:20:37;22.15;;;19.12;;
26014;SDS011;13793;55.388;37.844;2022-07-24T01:23:05;23.85;;;19.73;;
26014;SDS011;13793;55.388;37.844;2022-07-24T01:25:36;21.17;;;18.98;;
26014;SDS011;13793;55.388;37.844;2022-07-24T01:28:09;23.77;;;18.75;;
26014;SDS011;13793;55.388;37.844;2022-07-24T01:30:40;19.10;;;17.15;;
26014;SDS011;13793;55.388;37.844;2022-07-24T01:33:10;22.70;;;19.20;;
26014;SDS011;13793;55.388;37.844;2022-07-24T01:35:42;20.65;;;18.02;;
26014;SDS011;13793;55.388;37.844;2022-07-24T01:38:13;22.27;;;17.70;;
26014;SDS011;13793;55.388;37.844;2022-07-24T01:40:44;20.97;;;17.52;;
26014;SDS011;13793;55.388;37.844;2022-07-24T01:43:14;21.07;;;17.62;;
26014;SDS011;13793;55.388;37.844;2022-07-24T01:45:45;20.43;;;18.17;;
26014;SDS011;13793;55.388;37.844;2022-07-24T01:48:18;20.68;;;18.20;;
26014;SDS011;13793;55.388;37.844;2022-07-24T01:50:49;21.45;;;19.17;;
26014;SDS011;13793;55.388;37.844;2022-07-24T01:53:20;20.72;;;18.07;;
26014;SDS011;13793;55.388;37.844;2022-07-24T01:55:51;21.82;;;18.50;;
26014;SDS011;13793;55.388;37.844;2022-07-24T01:58:22;24.60;;;18.32;;
26014;SDS011;13793;55.388;37.844;2022-07-24T02:00:53;19.50;;;16.90;;
26014;SDS011;13793;55.388;37.844;2022-07-24T02:03:23;19.67;;;17.62;;
26014;SDS011;13793;55.388;37.844;2022-07-24T02:05:54;21.15;;;17.92;;
26014;SDS011;13793;55.388;37.844;2022-07-24T02:08:24;19.50;;;16.85;;
26014;SDS011;13793;55.388;37.844;2022-07-24T02:10:55;20.17;;;16.82;;
26014;SDS011;13793;55.388;37.844;2022-07-24T02:13:26;19.95;;;16.67;;
26014;SDS011;13793;55.388;37.844;2022-07-24T02:15:56;17.90;;;16.10;;
26014;SDS011;13793;55.388;37.844;2022-07-24T02:18:27;20.60;;;17.00;;
26014;SDS011;13793;55.388;37.844;2022-07-24T02:20:57;17.98;;;16.02;;
26014;SDS011;13793;55.388;37.844;2022-07-24T02:23:28;24.75;;;16.48;;
26014;SDS011;13793;55.388;37.844;2022-07-24T02:25:59;19.52;;;15.72;;
26014;SDS011;13793;55.388;37.844;2022-07-24T02:28:30;18.85;;;16.85;;
26014;SDS011;13793;55.388;37.844;2022-07-24T02:31:01;19.12;;;16.32;;
26014;SDS011;13793;55.388;37.844;2022-07-24T02:33:32;20.88;;;18.62;;
26014;SDS011;13793;55.388;37.844;2022-07-24T02:36:02;21.42;;;18.80;;
26014;SDS011;13793;55.388;37.844;2022-07-24T02:38:34;22.80;;;19.02;;
26014;SDS011;13793;55.388;37.844;2022-07-24T02:41:05;24.18;;;21.45;;
26014;SDS011;13793;55.388;37.844;2022-07-24T02:43:35;24.47;;;20.77;;
26014;SDS011;13793;55.388;37.844;2022-07-24T02:46:10;21.35;;;18.40;;
26014;SDS011;13793;55.388;37.844;2022-07-24T02:48:41;26.70;;;19.52;;
26014;SDS011;13793;55.388;37.844;2022-07-24T02:51:12;24.25;;;21.25;;
26014;SDS011;13793;55.388;37.844;2022-07-24T02:53:42;28.62;;;23.87;;
26014;SDS011;13793;55.388;37.844;2022-07-24T02:56:13;27.40;;;21.90;;
26014;SDS011;13793;55.388;37.844;2022-07-24T02:58:44;24.35;;;21.12;;
26014;SDS011;13793;55.388;37.844;2022-07-24T03:01:14;24.92;;;22.27;;
26014;SDS011;13793;55.388;37.844;2022-07-24T03:03:45;23.95;;;20.23;;
26014;SDS011;13793;55.388;37.844;2022-07-24T03:06:16;21.37;;;19.17;;
26014;SDS011;13793;55.388;37.844;2022-07-24T03:08:46;25.55;;;21.40;;
26014;SDS011;13793;55.388;37.844;2022-07-24T03:11:17;23.32;;;19.85;;
26014;SDS011;13793;55.388;37.844;2022-07-24T03:13:48;21.55;;;19.25;;
26014;SDS011;13793;55.388;37.844;2022-07-24T03:16:19;23.67;;;18.85;;
26014;SDS011;13793;55.388;37.844;2022-07-24T03:18:49;19.32;;;17.17;;
26014;SDS011;13793;55.388;37.844;2022-07-24T03:21:20;18.35;;;16.45;;
26014;SDS011;13793;55.388;37.844;2022-07-24T03:23:51;18.98;;;16.95;;
26014;SDS011;13793;55.388;37.844;2022-07-24T03:26:22;18.15;;;16.25;;
26014;SDS011;13793;55.388;37.844;2022-07-24T03:28:53;17.07;;;15.25;;
26014;SDS011;13793;55.388;37.844;2022-07-24T03:31:24;17.42;;;15.55;;
26014;SDS011;13793;55.388;37.844;2022-07-24T03:33:54;17.17;;;14.47;;
26014;SDS011;13793;55.388;37.844;2022-07-24T03:36:25;16.07;;;14.25;;
26014;SDS011;13793;55.388;37.844;2022-07-24T03:38:56;17.55;;;15.38;;
26014;SDS011;13793;55.388;37.844;2022-07-24T03:41:27;16.35;;;14.65;;
26014;SDS011;13793;55.388;37.844;2022-07-24T03:43:57;15.32;;;13.72;;
26014;SDS011;13793;55.388;37.844;2022-07-24T03:46:28;16.12;;;14.30;;
26014;SDS011;13793;55.388;37.844;2022-07-24T03:48:59;15.20;;;13.70;;
26014;SDS011;13793;55.388;37.844;2022-07-24T03:51:30;15.98;;;14.28;;
26014;SDS011;13793;55.388;37.844;2022-07-24T03:54:03;15.75;;;14.15;;
26014;SDS011;13793;55.388;37.844;2022-07-24T03:56:33;15.45;;;13.13;;
26014;SDS011;13793;55.388;37.844;2022-07-24T03:59:08;15.78;;;14.28;;
26014;SDS011;13793;55.388;37.844;2022-07-24T04:01:39;56.42;;;48.73;;
26014;SDS011;13793;55.388;37.844;2022-07-24T04:04:22;19.57;;;16.45;;
26014;SDS011;13793;55.388;37.844;2022-07-24T04:06:54;17.23;;;15.10;;
26014;SDS011;13793;55.388;37.844;2022-07-24T04:09:24;17.27;;;14.33;;
26014;SDS011;13793;55.388;37.844;2022-07-24T04:11:55;16.12;;;13.22;;
26014;SDS011;13793;55.388;37.844;2022-07-24T04:14:28;14.93;;;12.90;;
26014;SDS011;13793;55.388;37.844;2022-07-24T04:17:00;13.70;;;11.90;;
26014;SDS011;13793;55.388;37.844;2022-07-24T04:19:31;14.73;;;11.78;;
26014;SDS011;13793;55.388;37.844;2022-07-24T04:22:02;13.72;;;12.33;;
26014;SDS011;13793;55.388;37.844;2022-07-24T04:24:32;12.70;;;11.50;;
26014;SDS011;13793;55.388;37.844;2022-07-24T04:27:03;12.93;;;10.95;;
26014;SDS011;13793;55.388;37.844;2022-07-24T04:29:34;12.40;;;11.10;;
26014;SDS011;13793;55.388;37.844;2022-07-24T04:32:05;14.13;;;11.03;;
26014;SDS011;13793;55.388;37.844;2022-07-24T04:34:36;12.35;;;11.15;;
26014;SDS011;13793;55.388;37.844;2022-07-24T04:37:07;12.93;;;11.12;;
26014;SDS011;13793;55.388;37.844;2022-07-24T04:39:38;11.97;;;10.58;;
26014;SDS011;13793;55.388;37.844;2022-07-24T04:42:08;12.45;;;10.08;;
26014;SDS011;13793;55.388;37.844;2022-07-24T04:44:39;10.93;;;9.70;;
26014;SDS011;13793;55.388;37.844;2022-07-24T04:47:10;12.20;;;10.05;;
26014;SDS011;13793;55.388;37.844;2022-07-24T04:49:41;12.95;;;10.50;;
26014;SDS011;13793;55.388;37.844;2022-07-24T04:52:11;10.85;;;9.48;;
26014;SDS011;13793;55.388;37.844;2022-07-24T04:54:42;11.45;;;9.60;;
26014;SDS011;13793;55.388;37.844;2022-07-24T04:57:13;11.18;;;9.68;;
26014;SDS011;13793;55.388;37.844;2022-07-24T04:59:44;13.85;;;12.45;;
26014;SDS011;13793;55.388;37.844;2022-07-24T05:02:14;13.43;;;10.63;;
26014;SDS011;13793;55.388;37.844;2022-07-24T05:04:48;15.48;;;13.15;;
26014;SDS011;13793;55.388;37.844;2022-07-24T05:07:19;10.08;;;9.08;;
26014;SDS011;13793;55.388;37.844;2022-07-24T05:09:50;10.20;;;7.87;;
26014;SDS011;13793;55.388;37.844;2022-07-24T05:12:21;8.63;;;6.97;;
26014;SDS011;13793;55.388;37.844;2022-07-24T05:14:55;8.83;;;7.00;;
26014;SDS011;13793;55.388;37.844;2022-07-24T05:17:26;8.35;;;7.25;;
26014;SDS011;13793;55.388;37.844;2022-07-24T05:19:56;10.80;;;6.70;;
26014;SDS011;13793;55.388;37.844;2022-07-24T05:22:28;7.47;;;5.67;;
26014;SDS011;13793;55.388;37.844;2022-07-24T05:24:59;6.62;;;5.22;;
26014;SDS011;13793;55.388;37.844;2022-07-24T05:27:30;6.03;;;5.53;;
26014;SDS011;13793;55.388;37.844;2022-07-24T05:30:01;5.75;;;5.25;;
26014;SDS011;13793;55.388;37.844;2022-07-24T05:32:33;5.62;;;4.50;;
26014;SDS011;13793;55.388;37.844;2022-07-24T05:35:04;5.80;;;4.78;;
26014;SDS011;13793;55.388;37.844;2022-07-24T05:37:35;5.35;;;4.42;;
26014;SDS011;13793;55.388;37.844;2022-07-24T05:40:06;4.75;;;4.15;;
26014;SDS011;13793;55.388;37.844;2022-07-24T05:42:37;9.83;;;6.78;;
26014;SDS011;13793;55.388;37.844;2022-07-24T05:45:08;5.97;;;3.85;;
26014;SDS011;13793;55.388;37.844;2022-07-24T05:47:40;5.10;;;4.00;;
26014;SDS011;13793;55.388;37.844;2022-07-24T05:50:11;6.05;;;3.85;;
26014;SDS011;13793;55.388;37.844;2022-07-24T05:52:42;5.10;;;4.60;;
26014;SDS011;13793;55.388;37.844;2022-07-24T05:55:13;4.47;;;4.08;;
26014;SDS011;13793;55.388;37.844;2022-07-24T05:57:45;3.65;;;3.17;;
26014;SDS011;13793;55.388;37.844;2022-07-24T06:00:16;5.12;;;3.17;;
26014;SDS011;13793;55.388;37.844;2022-07-24T06:02:47;4.87;;;3.67;;
26014;SDS011;13793;55.388;37.844;2022-07-24T06:05:18;2.92;;;2.72;;
26014;SDS011;13793;55.388;37.844;2022-07-24T06:07:49;4.55;;;2.60;;
26014;SDS011;13793;55.388;37.844;2022-07-24T06:10:20;5.83;;;2.70;;
26014;SDS011;13793;55.388;37.844;2022-07-24T06:12:50;3.33;;;2.35;;
26014;SDS011;13793;55.388;37.844;2022-07-24T06:15:21;4.20;;;2.60;;
26014;SDS011;13793;55.388;37.844;2022-07-24T06:17:52;3.17;;;2.87;;
26014;SDS011;13793;55.388;37.844;2022-07-24T06:20:23;3.33;;;2.67;;
26014;SDS011;13793;55.388;37.844;2022-07-24T06:22:54;4.70;;;2.80;;
26014;SDS011;13793;55.388;37.844;2022-07-24T06:25:25;3.72;;;3.15;;
26014;SDS011;13793;55.388;37.844;2022-07-24T06:27:56;2.90;;;2.60;;
26014;SDS011;13793;55.388;37.844;2022-07-24T06:30:27;2.72;;;2.33;;
26014;SDS011;13793;55.388;37.844;2022-07-24T06:32:59;3.72;;;2.77;;
26014;SDS011;13793;55.388;37.844;2022-07-24T06:35:29;3.40;;;2.52;;
26014;SDS011;13793;55.388;37.844;2022-07-24T06:38:02;3.30;;;2.42;;
26014;SDS011;13793;55.388;37.844;2022-07-24T06:40:33;3.45;;;2.70;;
26014;SDS011;13793;55.388;37.844;2022-07-24T06:43:05;5.20;;;3.40;;
26014;SDS011;13793;55.388;37.844;2022-07-24T06:45:36;4.40;;;4.00;;
26014;SDS011;13793;55.388;37.844;2022-07-24T06:48:07;3.77;;;3.37;;
26014;SDS011;13793;55.388;37.844;2022-07-24T06:50:37;3.05;;;2.75;;
26014;SDS011;13793;55.388;37.844;2022-07-24T06:53:08;3.85;;;3.35;;
26014;SDS011;13793;55.388;37.844;2022-07-24T06:55:39;3.77;;;2.83;;
26014;SDS011;13793;55.388;37.844;2022-07-24T06:58:11;2.85;;;2.65;;
26014;SDS011;13793;55.388;37.844;2022-07-24T07:00:42;3.72;;;2.52;;
26014;SDS011;13793;55.388;37.844;2022-07-24T07:03:13;3.40;;;2.58;;
26014;SDS011;13793;55.388;37.844;2022-07-24T07:05:44;2.65;;;2.45;;
26014;SDS011;13793;55.388;37.844;2022-07-24T07:08:18;3.12;;;2.65;;
26014;SDS011;13793;55.388;37.844;2022-07-24T07:10:49;3.08;;;2.85;;
26014;SDS011;13793;55.388;37.844;2022-07-24T07:13:20;4.17;;;2.72;;
26014;SDS011;13793;55.388;37.844;2022-07-24T07:15:51;3.45;;;2.52;;
26014;SDS011;13793;55.388;37.844;2022-07-24T07:18:21;3.35;;;3.05;;
26014;SDS011;13793;55.388;37.844;2022-07-24T07:20:52;3.42;;;3.00;;
26014;SDS011;13793;55.388;37.844;2022-07-24T07:23:24;3.08;;;2.83;;
26014;SDS011;13793;55.388;37.844;2022-07-24T07:25:55;3.17;;;2.87;;
26014;SDS011;13793;55.388;37.844;2022-07-24T07:28:26;3.55;;;2.67;;
26014;SDS011;13793;55.388;37.844;2022-07-24T07:30:57;2.98;;;2.75;;
26014;SDS011;13793;55.388;37.844;2022-07-24T07:33:27;3.02;;;2.52;;
26014;SDS011;13793;55.388;37.844;2022-07-24T07:35:58;3.33;;;2.77;;
26014;SDS011;13793;55.388;37.844;2022-07-24T07:38:29;4.92;;;4.42;;
26014;SDS011;13793;55.388;37.844;2022-07-24T07:41:00;3.72;;;2.95;;
26014;SDS011;13793;55.388;37.844;2022-07-24T07:43:30;3.08;;;2.80;;
26014;SDS011;13793;55.388;37.844;2022-07-24T07:46:01;3.05;;;2.85;;
26014;SDS011;13793;55.388;37.844;2022-07-24T07:48:33;3.37;;;2.72;;
26014;SDS011;13793;55.388;37.844;2022-07-24T07:51:03;2.40;;;2.20;;
26014;SDS011;13793;55.388;37.844;2022-07-24T07:53:34;3.22;;;2.70;;
26014;SDS011;13793;55.388;37.844;2022-07-24T07:56:05;2.98;;;2.67;;
26014;SDS011;13793;55.388;37.844;2022-07-24T07:58:36;5.05;;;4.37;;
26014;SDS011;13793;55.388;37.844;2022-07-24T08:01:07;3.65;;;2.90;;
26014;SDS011;13793;55.388;37.844;2022-07-24T08:03:38;2.95;;;2.75;;
26014;SDS011;13793;55.388;37.844;2022-07-24T08:06:08;2.77;;;2.47;;
26014;SDS011;13793;55.388;37.844;2022-07-24T08:08:39;2.58;;;2.35;;
26014;SDS011;13793;55.388;37.844;2022-07-24T08:11:10;3.92;;;3.52;;
26014;SDS011;13793;55.388;37.844;2022-07-24T08:13:41;2.95;;;2.75;;
26014;SDS011;13793;55.388;37.844;2022-07-24T08:16:12;3.08;;;2.75;;
26014;SDS011;13793;55.388;37.844;2022-07-24T08:18:43;4.58;;;2.55;;
26014;SDS011;13793;55.388;37.844;2022-07-24T08:21:14;2.77;;;2.50;;
26014;SDS011;13793;55.388;37.844;2022-07-24T08:23:46;6.30;;;2.60;;
26014;SDS011;13793;55.388;37.844;2022-07-24T08:26:17;4.08;;;3.47;;
26014;SDS011;13793;55.388;37.844;2022-07-24T08:28:48;3.12;;;2.77;;
26014;SDS011;13793;55.388;37.844;2022-07-24T08:31:19;3.10;;;2.83;;
26014;SDS011;13793;55.388;37.844;2022-07-24T08:33:49;2.70;;;2.50;;
26014;SDS011;13793;55.388;37.844;2022-07-24T08:36:20;2.45;;;2.35;;
26014;SDS011;13793;55.388;37.844;2022-07-24T08:38:51;3.05;;;2.52;;
26014;SDS011;13793;55.388;37.844;2022-07-24T08:41:21;2.90;;;2.70;;
26014;SDS011;13793;55.388;37.844;2022-07-24T08:43:52;2.55;;;2.35;;
26014;SDS011;13793;55.388;37.844;2022-07-24T08:46:23;3.12;;;2.87;;
26014;SDS011;13793;55.388;37.844;2022-07-24T08:48:55;5.15;;;4.40;;
26014;SDS011;13793;55.388;37.844;2022-07-24T08:51:34;3.62;;;2.58;;
26014;SDS011;13793;55.388;37.844;2022-07-24T08:54:05;3.20;;;2.87;;
26014;SDS011;13793;55.388;37.844;2022-07-24T08:56:40;2.52;;;2.33;;
26014;SDS011;13793;55.388;37.844;2022-07-24T08:59:15;4.20;;;2.70;;
26014;SDS011;13793;55.388;37.844;2022-07-24T09:01:47;2.30;;;2.20;;
26014;SDS011;13793;55.388;37.844;2022-07-24T09:04:31;3.08;;;2.37;;
26014;SDS011;13793;55.388;37.844;2022-07-24T09:07:13;9.50;;;3.70;;
26014;SDS011;13793;55.388;37.844;2022-07-24T09:12:41;2.60;;;2.40;;
26014;SDS011;13793;55.388;37.844;2022-07-24T09:15:21;4.60;;;2.40;;
26014;SDS011;13793;55.388;37.844;2022-07-24T09:17:58;3.00;;;2.80;;
26014;SDS011;13793;55.388;37.844;2022-07-24T09:20:29;3.47;;;2.35;;
26014;SDS011;13793;55.388;37.844;2022-07-24T09:23:00;3.95;;;2.47;;
26014;SDS011;13793;55.388;37.844;2022-07-24T09:25:31;2.30;;;2.10;;
26014;SDS011;13793;55.388;37.844;2022-07-24T09:28:03;2.70;;;2.05;;
26014;SDS011;13793;55.388;37.844;2022-07-24T09:30:41;2.80;;;2.40;;
26014;SDS011;13793;55.388;37.844;2022-07-24T09:35:50;3.72;;;2.15;;
26014;SDS011;13793;55.388;37.844;2022-07-24T09:38:22;2.75;;;2.55;;
26014;SDS011;13793;55.388;37.844;2022-07-24T09:40:54;2.62;;;2.42;;
26014;SDS011;13793;55.388;37.844;2022-07-24T09:43:28;2.45;;;2.30;;
26014;SDS011;13793;55.388;37.844;2022-07-24T09:46:03;4.70;;;4.30;;
26014;SDS011;13793;55.388;37.844;2022-07-24T09:48:36;3.72;;;2.50;;
26014;SDS011;13793;55.388;37.844;2022-07-24T09:51:14;3.22;;;2.77;;
26014;SDS011;13793;55.388;37.844;2022-07-24T09:53:47;5.03;;;4.33;;
26014;SDS011;13793;55.388;37.844;2022-07-24T09:56:26;2.70;;;2.45;;
26014;SDS011;13793;55.388;37.844;2022-07-24T09:58:57;2.37;;;2.27;;
26014;SDS011;13793;55.388;37.844;2022-07-24T10:01:29;4.17;;;2.10;;
26014;SDS011;13793;55.388;37.844;2022-07-24T10:04:02;3.60;;;2.40;;
26014;SDS011;13793;55.388;37.844;2022-07-24T10:06:34;2.58;;;2.40;;
26014;SDS011;13793;55.388;37.844;2022-07-24T10:09:06;2.60;;;2.40;;
26014;SDS011;13793;55.388;37.844;2022-07-24T10:11:38;3.77;;;2.60;;
26014;SDS011;13793;55.388;37.844;2022-07-24T10:14:11;2.50;;;2.30;;
26014;SDS011;13793;55.388;37.844;2022-07-24T10:16:42;2.98;;;2.70;;
26014;SDS011;13793;55.388;37.844;2022-07-24T10:19:14;4.15;;;3.05;;
26014;SDS011;13793;55.388;37.844;2022-07-24T10:21:47;5.00;;;4.50;;
26014;SDS011;13793;55.388;37.844;2022-07-24T10:27:15;5.35;;;3.85;;
26014;SDS011;13793;55.388;37.844;2022-07-24T10:29:43;7.12;;;3.25;;
26014;SDS011;13793;55.388;37.844;2022-07-24T10:32:14;3.00;;;2.40;;
26014;SDS011;13793;55.388;37.844;2022-07-24T10:37:50;4.62;;;2.87;;
26014;SDS011;13793;55.388;37.844;2022-07-24T10:43:33;2.98;;;2.72;;
26014;SDS011;13793;55.388;37.844;2022-07-24T10:48:38;2.40;;;2.20;;
26014;SDS011;13793;55.388;37.844;2022-07-24T10:51:12;3.37;;;2.30;;
26014;SDS011;13793;55.388;37.844;2022-07-24T10:53:46;3.85;;;2.52;;
26014;SDS011;13793;55.388;37.844;2022-07-24T11:01:32;2.40;;;2.17;;
26014;SDS011;13793;55.388;37.844;2022-07-24T11:07:13;2.85;;;2.60;;
26014;SDS011;13793;55.388;37.844;2022-07-24T11:12:41;2.27;;;1.95;;
26014;SDS011;13793;55.388;37.844;2022-07-24T11:15:07;1.80;;;1.70;;
26014;SDS011;13793;55.388;37.844;2022-07-24T11:18:11;3.35;;;2.60;;
26014;SDS011;13793;55.388;37.844;2022-07-24T11:20:32;3.72;;;3.42;;
26014;SDS011;13793;55.388;37.844;2022-07-24T11:23:04;3.12;;;2.10;;
26014;SDS011;13793;55.388;37.844;2022-07-24T11:25:35;2.98;;;2.00;;
26014;SDS011;13793;55.388;37.844;2022-07-24T11:30:43;2.67;;;2.15;;
26014;SDS011;13793;55.388;37.844;2022-07-24T11:33:20;2.72;;;2.37;;
26014;SDS011;13793;55.388;37.844;2022-07-24T11:35:48;2.47;;;2.27;;
26014;SDS011;13793;55.388;37.844;2022-07-24T11:38:20;3.08;;;2.20;;
26014;SDS011;13793;55.388;37.844;2022-07-24T11:41:04;2.20;;;2.00;;
26014;SDS011;13793;55.388;37.844;2022-07-24T11:43:48;2.40;;;2.20;;
26014;SDS011;13793;55.388;37.844;2022-07-24T11:46:36;2.20;;;2.00;;
26014;SDS011;13793;55.388;37.844;2022-07-24T11:49:11;2.70;;;2.30;;
26014;SDS011;13793;55.388;37.844;2022-07-24T11:51:45;3.92;;;2.20;;
26014;SDS011;13793;55.388;37.844;2022-07-24T11:54:27;2.22;;;2.02;;
26014;SDS011;13793;55.388;37.844;2022-07-24T11:56:56;3.92;;;2.40;;
26014;SDS011;13793;55.388;37.844;2022-07-24T11:59:28;2.47;;;2.08;;
26014;SDS011;13793;55.388;37.844;2022-07-24T12:02:09;3.05;;;2.62;;
26014;SDS011;13793;55.388;37.844;2022-07-24T12:04:41;2.45;;;2.25;;
26014;SDS011;13793;55.388;37.844;2022-07-24T12:07:17;2.80;;;2.10;;
26014;SDS011;13793;55.388;37.844;2022-07-24T12:09:54;3.47;;;2.00;;
26014;SDS011;13793;55.388;37.844;2022-07-24T12:12:23;2.58;;;2.05;;
26014;SDS011;13793;55.388;37.844;2022-07-24T12:17:52;3.42;;;2.30;;
26014;SDS011;13793;55.388;37.844;2022-07-24T12:20:28;4.90;;;2.40;;
26014;SDS011;13793;55.388;37.844;2022-07-24T12:23:01;3.37;;;2.52;;
26014;SDS011;13793;55.388;37.844;2022-07-24T12:25:33;3.15;;;2.45;;
26014;SDS011;13793;55.388;37.844;2022-07-24T12:28:06;3.62;;;2.60;;
26014;SDS011;13793;55.388;37.844;2022-07-24T12:30:39;4.25;;;2.30;;
26014;SDS011;13793;55.388;37.844;2022-07-24T12:35:53;3.00;;;2.80;;
26014;SDS011;13793;55.388;37.844;2022-07-24T12:38:32;6.10;;;4.05;;
26014;SDS011;13793;55.388;37.844;2022-07-24T12:41:04;6.50;;;5.92;;
26014;SDS011;13793;55.388;37.844;2022-07-24T12:43:55;3.58;;;2.90;;
26014;SDS011;13793;55.388;37.844;2022-07-24T12:46:35;3.50;;;3.20;;
26014;SDS011;13793;55.388;37.844;2022-07-24T12:49:08;2.65;;;2.45;;
26014;SDS011;13793;55.388;37.844;2022-07-24T12:51:52;2.72;;;2.50;;
26014;SDS011;13793;55.388;37.844;2022-07-24T12:54:29;2.90;;;2.58;;
26014;SDS011;13793;55.388;37.844;2022-07-24T12:57:08;2.60;;;2.40;;
26014;SDS011;13793;55.388;37.844;2022-07-24T12:59:41;2.60;;;2.40;;
26014;SDS011;13793;55.388;37.844;2022-07-24T13:02:19;3.00;;;2.70;;
26014;SDS011;13793;55.388;37.844;2022-07-24T13:04:53;2.98;;;2.67;;
26014;SDS011;13793;55.388;37.844;2022-07-24T13:07:29;2.87;;;2.55;;
26014;SDS011;13793;55.388;37.844;2022-07-24T13:10:01;3.15;;;2.40;;
26014;SDS011;13793;55.388;37.844;2022-07-24T13:12:32;3.58;;;2.77;;
26014;SDS011;13793;55.388;37.844;2022-07-24T13:15:03;2.85;;;2.65;;
26014;SDS011;13793;55.388;37.844;2022-07-24T13:17:35;4.70;;;2.40;;
26014;SDS011;13793;55.388;37.844;2022-07-24T13:20:06;3.42;;;2.70;;
26014;SDS011;13793;55.388;37.844;2022-07-24T13:22:37;3.65;;;2.50;;
26014;SDS011;13793;55.388;37.844;2022-07-24T13:25:08;3.30;;;2.60;;
26014;SDS011;13793;55.388;37.844;2022-07-24T13:27:39;3.92;;;2.40;;
26014;SDS011;13793;55.388;37.844;2022-07-24T13:30:10;2.35;;;2.20;;
26014;SDS011;13793;55.388;37.844;2022-07-24T13:32:44;2.58;;;2.35;;
26014;SDS011;13793;55.388;37.844;2022-07-24T13:35:15;3.92;;;2.67;;
26014;SDS011;13793;55.388;37.844;2022-07-24T13:37:46;3.40;;;2.90;;
26014;SDS011;13793;55.388;37.844;2022-07-24T13:40:17;3.40;;;2.70;;
26014;SDS011;13793;55.388;37.844;2022-07-24T13:42:48;5.10;;;2.62;;
26014;SDS011;13793;55.388;37.844;2022-07-24T13:45:18;3.42;;;3.12;;
26014;SDS011;13793;55.388;37.844;2022-07-24T13:47:50;2.90;;;2.70;;
26014;SDS011;13793;55.388;37.844;2022-07-24T13:50:21;2.95;;;2.67;;
26014;SDS011;13793;55.388;37.844;2022-07-24T13:52:52;2.90;;;2.70;;
26014;SDS011;13793;55.388;37.844;2022-07-24T13:55:23;2.70;;;2.50;;
26014;SDS011;13793;55.388;37.844;2022-07-24T13:57:54;2.85;;;2.50;;
26014;SDS011;13793;55.388;37.844;2022-07-24T14:00:25;3.75;;;2.52;;
26014;SDS011;13793;55.388;37.844;2022-07-24T14:02:56;3.67;;;3.37;;
26014;SDS011;13793;55.388;37.844;2022-07-24T14:05:27;4.33;;;4.00;;
26014;SDS011;13793;55.388;37.844;2022-07-24T14:07:58;3.92;;;2.90;;
26014;SDS011;13793;55.388;37.844;2022-07-24T14:10:29;4.10;;;3.00;;
26014;SDS011;13793;55.388;37.844;2022-07-24T14:13:00;4.08;;;3.25;;
26014;SDS011;13793;55.388;37.844;2022-07-24T14:15:31;3.12;;;2.72;;
26014;SDS011;13793;55.388;37.844;2022-07-24T14:18:01;3.83;;;2.70;;
26014;SDS011;13793;55.388;37.844;2022-07-24T14:20:33;3.80;;;2.90;;
26014;SDS011;13793;55.388;37.844;2022-07-24T14:23:03;4.90;;;2.80;;
26014;SDS011;13793;55.388;37.844;2022-07-24T14:25:34;4.87;;;4.47;;
26014;SDS011;13793;55.388;37.844;2022-07-24T14:28:05;3.62;;;3.33;;
26014;SDS011;13793;55.388;37.844;2022-07-24T14:30:36;5.00;;;4.60;;
26014;SDS011;13793;55.388;37.844;2022-07-24T14:33:08;3.30;;;3.00;;
26014;SDS011;13793;55.388;37.844;2022-07-24T14:35:40;4.45;;;3.60;;
26014;SDS011;13793;55.388;37.844;2022-07-24T14:38:11;5.20;;;3.52;;
26014;SDS011;13793;55.388;37.844;2022-07-24T14:40:43;4.00;;;2.98;;
26014;SDS011;13793;55.388;37.844;2022-07-24T14:43:14;4.55;;;4.15;;
26014;SDS011;13793;55.388;37.844;2022-07-24T14:45:45;6.22;;;5.60;;
26014;SDS011;13793;55.388;37.844;2022-07-24T14:48:16;7.85;;;6.35;;
26014;SDS011;13793;55.388;37.844;2022-07-24T14:50:47;4.20;;;3.90;;
26014;SDS011;13793;55.388;37.844;2022-07-24T14:53:18;4.17;;;3.25;;
26014;SDS011;13793;55.388;37.844;2022-07-24T14:55:48;3.50;;;3.20;;
26014;SDS011;13793;55.388;37.844;2022-07-24T14:58:19;3.70;;;2.80;;
26014;SDS011;13793;55.388;37.844;2022-07-24T15:00:50;3.40;;;3.08;;
26014;SDS011;13793;55.388;37.844;2022-07-24T15:03:21;4.55;;;2.60;;
26014;SDS011;13793;55.388;37.844;2022-07-24T15:05:51;4.87;;;2.70;;
26014;SDS011;13793;55.388;37.844;2022-07-24T15:08:22;3.17;;;2.98;;
26014;SDS011;13793;55.388;37.844;2022-07-24T15:10:53;3.77;;;3.27;;
26014;SDS011;13793;55.388;37.844;2022-07-24T15:13:24;3.02;;;2.62;;
26014;SDS011;13793;55.388;37.844;2022-07-24T15:15:55;3.42;;;3.12;;
26014;SDS011;13793;55.388;37.844;2022-07-24T15:18:25;4.87;;;3.15;;
26014;SDS011;13793;55.388;37.844;2022-07-24T15:20:57;3.50;;;2.70;;
26014;SDS011;13793;55.388;37.844;2022-07-24T15:23:27;4.15;;;2.85;;
26014;SDS011;13793;55.388;37.844;2022-07-24T15:25:58;3.50;;;2.50;;
26014;SDS011;13793;55.388;37.844;2022-07-24T15:28:29;4.17;;;2.50;;
26014;SDS011;13793;55.388;37.844;2022-07-24T15:31:00;4.42;;;2.40;;